This is the latest recevied weather packets stored in our database for station/object HARMALA. If no packets are shown the sender has not sent any weather packets the latest 10 day(s).
| Time | Temp. | Humidity | Pressure | Rain* | Wind** | Luminosity | Snow |
|---|---|---|---|---|---|---|---|
| 1777780028 | 8.33° C | 75% | 1006.1 hPa | 0 mm | - | - | - |
| 1777778828 | 8.89° C | 70% | 1005.7 hPa | 0 mm | - | - | - |
| 1777777628 | 8.89° C | 69% | 1005.6 hPa | 0 mm | - | - | - |
| 1777776428 | 9.44° C | 68% | 1005.5 hPa | 0 mm | - | - | - |
| 1777775227 | 9.44° C | 66% | 1005.5 hPa | 0 mm | - | - | - |
| 1777774027 | 9.44° C | 63% | 1005.3 hPa | 0 mm | - | - | - |
| 1777772828 | 10° C | 61% | 1005.2 hPa | 0 mm | - | - | - |
| 1777768027 | 9.44° C | 63% | 1005.4 hPa | 0 mm | - | - | - |
| 1777764427 | 10° C | 62% | 1005.1 hPa | 0 mm | - | - | - |
| 1777763227 | 10° C | 60% | 1005.3 hPa | 0 mm | - | - | - |
| 1777760828 | 11.11° C | 55% | 1005.6 hPa | 0 mm | - | - | - |
| 1777759628 | 10.56° C | 59% | 1005.6 hPa | 0 mm | - | - | - |
| 1777758427 | 10.56° C | 56% | 1005.8 hPa | 0 mm | - | - | - |
| 1777747626 | 13.89° C | 38% | 1006.6 hPa | 0 mm | - | - | - |
| 1777739225 | 16.67° C | 31% | 1006.7 hPa | 0 mm | - | - | - |
| 1777738025 | 17.22° C | 30% | 1006.7 hPa | 0 mm | - | - | - |
| 1777735625 | 17.78° C | 31% | 1007 hPa | 0 mm | - | - | - |
| 1777734425 | 17.78° C | 30% | 1007 hPa | 0 mm | - | - | - |
| 1777733225 | 17.78° C | 30% | 1007 hPa | 0 mm | - | - | - |
| 1777732025 | 18.33° C | 30% | 1007 hPa | 0 mm | - | - | - |
| 1777730825 | 17.78° C | 29% | 1007.1 hPa | 0 mm | - | - | - |
| 1777729625 | 18.33° C | 29% | 1007.1 hPa | 0 mm | - | - | - |
| 1777728425 | 18.33° C | 30% | 1007.1 hPa | 0 mm | - | - | - |
| 1777727225 | 18.33° C | 29% | 1007.1 hPa | 0 mm | - | - | - |
| 1777726025 | 18.89° C | 25% | 1007.1 hPa | 0 mm | - | - | - |
* Rain latest hour (hover to see other rain measurements)
** Current wind speed in m/s (hover to see current wind gust speed)